createdAt,value
2022-09-14T02:14:30.313Z,1.08
2022-09-14T02:16:56.924Z,1.60
2022-09-14T02:19:25.400Z,1.35
2022-09-14T02:21:51.981Z,1.88
2022-09-14T02:24:18.547Z,0.93
2022-09-14T02:26:45.648Z,0.75
2022-09-14T02:29:12.263Z,1.27
2022-09-14T02:32:08.885Z,0.80
2022-09-14T02:35:16.751Z,1.33
2022-09-14T02:37:49.198Z,1.00
2022-09-14T02:40:27.704Z,1.27
2022-09-14T02:42:57.044Z,1.33
2022-09-14T02:45:43.993Z,1.27
2022-09-14T02:48:16.246Z,0.85
2022-09-14T02:50:56.062Z,1.25
2022-09-14T02:53:35.620Z,1.20
2022-09-14T02:56:07.912Z,0.73
2022-09-14T02:58:42.411Z,0.80
2022-09-14T03:01:11.562Z,0.82
2022-09-14T03:03:38.423Z,1.65
2022-09-14T03:06:05.567Z,2.25
2022-09-14T03:08:32.856Z,1.52
2022-09-14T03:10:59.480Z,1.23
2022-09-14T03:13:26.021Z,0.70
2022-09-14T03:15:52.682Z,1.42
2022-09-14T03:18:19.645Z,3.60
2022-09-14T03:20:46.317Z,0.80
2022-09-14T03:23:13.611Z,1.35
2022-09-14T03:25:42.317Z,2.95
2022-09-14T03:28:10.160Z,1.45
2022-09-14T03:30:36.890Z,1.33
2022-09-14T03:33:03.669Z,1.00
2022-09-14T03:35:31.510Z,1.13
2022-09-14T03:37:59.420Z,1.38
2022-09-14T03:40:26.825Z,0.95
2022-09-14T03:42:53.647Z,1.35
2022-09-14T03:45:21.017Z,1.02
2022-09-14T03:47:47.975Z,1.90
2022-09-14T03:50:15.741Z,0.82
2022-09-14T03:52:42.341Z,0.90
2022-09-14T03:55:10.031Z,1.85
2022-09-14T03:57:37.176Z,1.52
2022-09-14T04:00:05.826Z,0.88
2022-09-14T04:02:32.533Z,0.65
2022-09-14T04:04:59.129Z,1.20
2022-09-14T04:07:25.838Z,1.52
2022-09-14T04:09:52.364Z,1.95
2022-09-14T04:12:18.942Z,1.33
2022-09-14T04:14:45.520Z,2.30
2022-09-14T04:17:12.069Z,1.00
2022-09-14T04:19:42.203Z,0.85
2022-09-14T04:22:08.953Z,0.90
2022-09-14T04:24:35.509Z,1.48
2022-09-14T04:27:02.067Z,1.17
2022-09-14T04:29:30.602Z,1.83
2022-09-14T04:31:57.621Z,0.90
2022-09-14T04:34:24.191Z,2.33
2022-09-14T04:36:50.745Z,0.93
2022-09-14T04:39:17.388Z,1.52
2022-09-14T04:41:43.957Z,2.15
2022-09-14T04:44:10.808Z,1.00
2022-09-14T04:46:43.625Z,1.23
2022-09-14T04:49:13.200Z,1.27
2022-09-14T04:51:39.805Z,1.60
2022-09-14T04:54:07.222Z,0.73
2022-09-14T04:56:35.744Z,1.10
2022-09-14T04:59:04.428Z,1.08
2022-09-14T05:01:37.198Z,0.60
2022-09-14T05:04:04.673Z,1.48
2022-09-14T05:06:34.052Z,1.23
2022-09-14T05:09:03.065Z,1.30
2022-09-14T05:11:31.705Z,1.52
2022-09-14T05:13:59.176Z,1.52
2022-09-14T05:16:28.089Z,1.05
2022-09-14T05:19:02.018Z,0.95
2022-09-14T05:21:29.960Z,0.75
2022-09-14T05:24:01.366Z,0.90
2022-09-14T05:26:29.871Z,2.80
2022-09-14T05:28:59.945Z,1.45
2022-09-14T05:31:27.724Z,1.83
2022-09-14T05:33:54.704Z,0.77
2022-09-14T05:36:21.650Z,0.95
2022-09-14T05:38:48.237Z,1.20
2022-09-14T05:41:15.639Z,1.25
2022-09-14T05:43:42.392Z,2.03
2022-09-14T05:46:14.413Z,1.98
2022-09-14T05:48:41.099Z,1.70
2022-09-14T05:51:16.341Z,2.10
2022-09-14T05:53:50.779Z,1.88
2022-09-14T05:56:18.664Z,1.23
2022-09-14T05:58:45.491Z,1.02
2022-09-14T06:01:17.405Z,0.95
2022-09-14T06:03:44.898Z,1.88
2022-09-14T06:06:17.491Z,2.90
2022-09-14T06:08:44.613Z,1.43
2022-09-14T06:11:15.239Z,1.33
2022-09-14T06:13:42.423Z,1.58
2022-09-14T06:16:12.427Z,1.48
2022-09-14T06:18:40.170Z,2.08
2022-09-14T06:21:07.761Z,1.40
2022-09-14T06:23:34.566Z,2.25
2022-09-14T06:26:02.537Z,1.67
2022-09-14T06:28:29.381Z,1.02
2022-09-14T06:30:56.341Z,3.60
2022-09-14T06:33:23.369Z,1.30
2022-09-14T06:36:01.476Z,2.00
2022-09-14T06:38:29.065Z,1.25
2022-09-14T06:41:00.692Z,0.85
2022-09-14T06:43:29.355Z,16.15
2022-09-14T06:46:19.801Z,12.60
2022-09-14T06:48:50.941Z,15.25
2022-09-14T06:51:19.805Z,7.93
2022-09-14T06:53:47.053Z,8.05
2022-09-14T06:56:14.056Z,8.55
2022-09-14T06:58:41.149Z,8.23
2022-09-14T07:01:11.299Z,5.35
2022-09-14T07:03:39.108Z,8.77
2022-09-14T07:06:10.968Z,7.60
2022-09-14T07:08:38.749Z,2.85
2022-09-14T07:11:06.354Z,4.43
2022-09-14T07:13:32.917Z,4.88
2022-09-14T07:15:59.713Z,2.20
2022-09-14T07:18:33.712Z,2.75
2022-09-14T07:21:10.332Z,10.55
2022-09-14T07:23:38.492Z,10.43
2022-09-14T07:26:09.056Z,9.10
2022-09-14T07:28:36.608Z,6.78
2022-09-14T07:31:04.224Z,9.82
2022-09-14T07:33:31.123Z,7.10
2022-09-14T07:36:08.170Z,10.98
2022-09-14T07:38:51.705Z,5.93
2022-09-14T07:41:22.890Z,5.78
2022-09-14T07:43:54.017Z,6.88
2022-09-14T07:46:21.591Z,11.52
2022-09-14T07:48:49.062Z,9.35
2022-09-14T07:51:15.785Z,6.18
2022-09-14T07:53:43.327Z,8.77
2022-09-14T07:56:11.440Z,7.80
2022-09-14T07:58:38.257Z,10.27
2022-09-14T08:01:11.934Z,4.55
2022-09-14T08:03:43.509Z,5.55
2022-09-14T08:06:16.871Z,4.97
2022-09-14T08:11:16.249Z,5.28
2022-09-14T08:13:45.861Z,3.63
2022-09-14T08:16:13.407Z,5.75
2022-09-14T08:18:40.238Z,4.28
2022-09-14T08:21:07.951Z,5.63
2022-09-14T08:23:34.698Z,3.53
2022-09-14T08:26:05.824Z,4.88
2022-09-14T08:28:32.394Z,6.30
2022-09-14T08:31:06.792Z,6.47
2022-09-14T08:33:34.849Z,4.43
2022-09-14T08:36:01.643Z,1.23
2022-09-14T08:38:28.354Z,3.38
2022-09-14T08:40:55.294Z,5.57
2022-09-14T08:43:23.737Z,3.35
2022-09-14T08:45:51.106Z,3.58
2022-09-14T08:48:24.109Z,6.82
2022-09-14T08:50:53.818Z,5.28
2022-09-14T08:53:21.604Z,4.00
2022-09-14T08:55:54.709Z,3.83
2022-09-14T08:58:56.646Z,3.72
2022-09-14T09:01:36.464Z,2.38
2022-09-14T09:04:07.186Z,2.53
2022-09-14T09:06:51.649Z,3.15
2022-09-14T09:09:27.024Z,2.03
2022-09-14T09:11:55.569Z,2.28
2022-09-14T09:14:24.295Z,2.08
2022-09-14T09:16:54.260Z,2.08
2022-09-14T09:19:32.773Z,2.50
2022-09-14T09:21:59.981Z,3.15
2022-09-14T09:24:35.208Z,3.80
2022-09-14T09:27:09.843Z,2.15
2022-09-14T09:29:36.373Z,3.58
2022-09-14T09:32:04.740Z,2.55
2022-09-14T09:34:31.452Z,3.33
2022-09-14T09:37:00.829Z,4.22
2022-09-14T09:39:30.486Z,2.83
2022-09-14T09:42:29.115Z,2.05
2022-09-14T09:45:03.308Z,2.60
2022-09-14T09:47:41.256Z,2.97
2022-09-14T09:50:13.647Z,3.92
2022-09-14T09:52:49.697Z,3.60
2022-09-14T09:55:21.291Z,1.83
2022-09-14T09:57:47.881Z,2.10
2022-09-14T10:00:24.373Z,3.00
2022-09-14T10:02:51.779Z,3.38
2022-09-14T10:05:21.718Z,3.17
2022-09-14T10:07:53.855Z,1.65
2022-09-14T10:10:26.929Z,3.97
2022-09-14T10:12:55.967Z,2.25
2022-09-14T10:15:31.321Z,2.67
2022-09-14T10:18:13.199Z,1.90
2022-09-14T10:20:42.756Z,1.02
2022-09-14T10:23:20.265Z,2.22
2022-09-14T10:26:03.672Z,1.98
2022-09-14T10:28:33.876Z,2.63
2022-09-14T10:31:16.019Z,2.88
2022-09-14T10:33:42.732Z,1.92
2022-09-14T10:36:21.057Z,2.70
2022-09-14T10:39:01.212Z,1.75
2022-09-14T10:41:34.277Z,1.55
2022-09-14T10:44:19.528Z,1.98
2022-09-14T10:47:12.320Z,2.33
2022-09-14T10:49:51.812Z,2.65
2022-09-14T10:52:50.660Z,2.45
2022-09-14T10:55:20.127Z,2.83
2022-09-14T10:58:17.337Z,1.63
2022-09-14T11:01:18.114Z,6.80
2022-09-14T11:03:56.832Z,3.30
2022-09-14T11:06:49.260Z,2.47
2022-09-14T11:09:38.849Z,3.60
2022-09-14T11:12:20.481Z,5.68
2022-09-14T11:15:02.384Z,4.50
2022-09-14T11:17:45.505Z,2.33
2022-09-14T11:20:15.587Z,3.22
2022-09-14T11:22:47.856Z,5.55
2022-09-14T11:25:36.851Z,13.18
2022-09-14T11:28:14.431Z,10.90
2022-09-14T11:30:45.908Z,9.15
2022-09-14T11:33:54.899Z,12.60
2022-09-14T11:36:23.235Z,7.75
2022-09-14T11:39:06.070Z,7.55
2022-09-14T11:44:16.022Z,6.70
2022-09-14T11:46:47.009Z,4.47
2022-09-14T11:50:11.243Z,5.82
2022-09-14T11:52:37.816Z,7.32
2022-09-14T11:55:12.044Z,5.05
2022-09-14T11:57:38.620Z,6.57
2022-09-14T12:00:23.752Z,6.05
2022-09-14T12:03:19.226Z,5.32
2022-09-14T12:05:46.924Z,6.60
2022-09-14T12:08:31.616Z,4.60
2022-09-14T12:11:08.390Z,3.17
2022-09-14T12:13:36.635Z,3.80
2022-09-14T12:16:08.621Z,6.63
2022-09-14T12:18:39.885Z,6.18
2022-09-14T12:21:20.520Z,4.07
2022-09-14T12:23:52.178Z,3.47
2022-09-14T12:26:18.857Z,4.20
2022-09-14T12:28:48.495Z,6.65
2022-09-14T12:31:40.092Z,3.63
2022-09-14T12:34:14.967Z,4.60
2022-09-14T12:36:41.800Z,4.97
2022-09-14T12:39:31.044Z,2.85
2022-09-14T12:42:25.547Z,3.30
2022-09-14T12:44:52.545Z,3.08
2022-09-14T12:47:24.885Z,4.35
2022-09-14T12:49:53.895Z,4.33
2022-09-14T12:52:29.838Z,3.60
2022-09-14T12:55:08.827Z,3.58
2022-09-14T12:57:59.291Z,3.55
2022-09-14T13:00:26.928Z,4.85
2022-09-14T13:02:56.449Z,3.65
2022-09-14T13:05:25.681Z,5.13
2022-09-14T13:07:54.042Z,4.30
2022-09-14T13:10:33.251Z,2.85
2022-09-14T13:13:06.952Z,3.80
2022-09-14T13:15:36.834Z,3.80
2022-09-14T13:18:12.768Z,2.53
2022-09-14T13:20:40.405Z,4.18
2022-09-14T13:23:20.393Z,2.83
2022-09-14T13:25:46.987Z,2.28
2022-09-14T13:28:18.276Z,4.28
2022-09-14T13:30:54.318Z,2.45
2022-09-14T13:33:21.221Z,1.95
2022-09-14T13:35:49.450Z,2.65
2022-09-14T13:38:23.576Z,4.03
2022-09-14T13:40:52.283Z,2.10
2022-09-14T13:43:20.336Z,3.15
2022-09-14T13:45:48.632Z,3.75
2022-09-14T13:48:16.612Z,4.40
2022-09-14T13:50:45.493Z,2.10
2022-09-14T13:53:37.173Z,2.40
2022-09-14T13:56:23.336Z,4.65
2022-09-14T13:58:51.897Z,1.85
2022-09-14T14:01:27.172Z,2.38
2022-09-14T14:03:54.130Z,3.90
2022-09-14T14:06:28.703Z,2.55
2022-09-14T14:08:58.913Z,3.83
2022-09-14T14:11:35.864Z,3.50
2022-09-14T14:14:11.574Z,3.25
2022-09-14T14:16:38.236Z,3.88
2022-09-14T14:19:04.809Z,3.53
2022-09-14T14:21:32.794Z,3.17
2022-09-14T14:24:27.775Z,3.67
2022-09-14T14:26:57.073Z,2.60
2022-09-14T14:29:24.341Z,4.00
2022-09-14T14:31:50.955Z,3.33
2022-09-14T14:34:20.543Z,1.48
2022-09-14T14:36:49.907Z,2.10
2022-09-14T14:39:21.094Z,4.03
2022-09-14T14:41:48.223Z,2.60
2022-09-14T14:44:20.564Z,3.42
2022-09-14T14:46:47.313Z,1.50
2022-09-14T14:49:15.747Z,2.45
2022-09-14T14:51:42.284Z,2.13
2022-09-14T14:54:10.227Z,2.38
2022-09-14T14:56:38.161Z,2.67
2022-09-14T14:59:21.162Z,4.13
2022-09-14T15:01:48.739Z,1.63
2022-09-14T15:04:15.584Z,2.38
2022-09-14T15:06:42.372Z,4.53
2022-09-14T15:09:18.258Z,2.92
2022-09-14T15:11:45.242Z,2.45
2022-09-14T15:14:14.039Z,3.30
2022-09-14T15:16:40.694Z,3.92
2022-09-14T15:19:07.666Z,1.67
2022-09-14T15:21:34.311Z,1.58
2022-09-14T15:24:01.407Z,2.72
2022-09-14T15:26:28.152Z,3.50
2022-09-14T15:28:54.712Z,1.77
2022-09-14T15:31:21.331Z,2.83
2022-09-14T15:33:48.148Z,2.13
2022-09-14T15:36:35.409Z,3.75
2022-09-14T15:39:02.134Z,3.25
2022-09-14T15:41:28.705Z,3.10
2022-09-14T15:43:55.252Z,1.77
2022-09-14T15:46:21.787Z,2.90
2022-09-14T15:48:48.362Z,1.95
2022-09-14T15:51:14.886Z,1.65
2022-09-14T15:53:42.231Z,3.35
2022-09-14T15:56:10.802Z,2.33
2022-09-14T15:58:37.636Z,2.05
2022-09-14T16:01:12.139Z,3.38
2022-09-14T16:03:40.232Z,2.90
2022-09-14T16:06:07.635Z,3.42
2022-09-14T16:08:38.264Z,2.08
2022-09-14T16:11:05.820Z,2.42
2022-09-14T16:13:33.548Z,2.15
2022-09-14T16:16:11.202Z,2.75
2022-09-14T16:18:38.186Z,2.03
2022-09-14T16:21:18.718Z,2.47
2022-09-14T16:23:56.343Z,2.78
2022-09-14T16:26:25.585Z,3.65
2022-09-14T16:28:52.996Z,3.42
2022-09-14T16:31:34.102Z,3.53
2022-09-14T16:34:05.998Z,4.10
2022-09-14T16:36:35.442Z,2.50
2022-09-14T16:39:04.423Z,3.22
2022-09-14T16:41:31.450Z,3.30
2022-09-14T16:43:59.733Z,4.63
2022-09-14T16:46:27.559Z,2.90
2022-09-14T16:48:54.718Z,2.67
2022-09-14T16:51:23.665Z,4.53
2022-09-14T16:53:51.684Z,3.15
2022-09-14T16:56:23.628Z,3.42
2022-09-14T16:58:52.937Z,2.30
2022-09-14T17:01:28.740Z,2.50
2022-09-14T17:03:57.455Z,3.58
2022-09-14T17:06:26.677Z,5.20
2022-09-14T17:08:55.228Z,4.57
2022-09-14T17:11:21.958Z,3.00
2022-09-14T17:13:48.620Z,3.72
2022-09-14T17:16:17.680Z,4.50
2022-09-14T17:18:45.651Z,4.13
2022-09-14T17:21:14.554Z,4.13
2022-09-14T17:23:41.286Z,3.70
2022-09-14T17:26:09.933Z,3.53
2022-09-14T17:28:37.410Z,4.85
2022-09-14T17:31:06.052Z,6.22
2022-09-14T17:33:35.440Z,4.03
2022-09-14T17:36:03.820Z,5.40
2022-09-14T17:38:36.903Z,3.83
2022-09-14T17:41:05.635Z,3.17
2022-09-14T17:43:33.081Z,3.95
2022-09-14T17:45:59.849Z,5.53
2022-09-14T17:48:27.862Z,3.47
2022-09-14T17:50:55.189Z,2.60
2022-09-14T17:53:21.867Z,3.58
2022-09-14T17:55:48.470Z,3.25
2022-09-14T17:58:19.478Z,3.35
2022-09-14T18:00:46.410Z,4.60
2022-09-14T18:03:13.117Z,5.18
2022-09-14T18:05:39.748Z,3.33
2022-09-14T18:08:07.353Z,3.50
2022-09-14T18:10:36.124Z,3.00
2022-09-14T18:13:02.676Z,4.85
2022-09-14T18:15:30.962Z,3.47
2022-09-14T18:17:57.805Z,3.22
2022-09-14T18:20:24.421Z,1.85
2022-09-14T18:22:50.961Z,1.33
2022-09-14T18:25:17.530Z,2.85
2022-09-14T18:27:44.065Z,3.95
2022-09-14T18:30:11.116Z,2.65
2022-09-14T18:32:37.724Z,2.60
2022-09-14T18:35:04.833Z,2.05
2022-09-14T18:37:31.489Z,4.35
2022-09-14T18:39:58.114Z,3.17
2022-09-14T18:42:24.736Z,1.73
2022-09-14T18:44:53.906Z,2.65
2022-09-14T18:47:22.420Z,2.20
2022-09-14T18:49:50.031Z,2.70
2022-09-14T18:52:18.107Z,2.50
2022-09-14T18:54:44.678Z,2.28
2022-09-14T18:57:11.712Z,4.82
2022-09-14T18:59:38.317Z,2.25
2022-09-14T19:02:04.967Z,3.40
2022-09-14T19:04:31.602Z,3.13
2022-09-14T19:06:58.164Z,2.45
2022-09-14T19:09:24.750Z,3.70
2022-09-14T19:11:51.286Z,1.92
2022-09-14T19:14:20.530Z,2.00
2022-09-14T19:16:47.117Z,4.00
2022-09-14T19:19:14.853Z,2.05
2022-09-14T19:21:41.749Z,2.28
2022-09-14T19:24:12.721Z,4.15
2022-09-14T19:26:45.500Z,2.38
2022-09-14T19:29:18.112Z,1.40
2022-09-14T19:31:44.770Z,2.30
2022-09-14T19:34:11.580Z,2.38
2022-09-14T19:36:38.123Z,3.22
2022-09-14T19:39:04.968Z,1.88
2022-09-14T19:41:33.059Z,2.28
2022-09-14T19:44:00.347Z,1.75
2022-09-14T19:46:27.116Z,2.28
2022-09-14T19:48:54.013Z,2.92
2022-09-14T19:51:25.274Z,2.90
2022-09-14T19:53:53.960Z,3.05
2022-09-14T19:56:22.481Z,2.05
2022-09-14T19:58:51.263Z,1.55
2022-09-14T20:01:20.136Z,3.20
2022-09-14T20:03:47.752Z,2.50
2022-09-14T20:06:22.678Z,2.80
2022-09-14T20:08:56.757Z,1.00
2022-09-14T20:11:25.369Z,1.58
2022-09-14T20:13:56.850Z,1.52
2022-09-14T20:16:26.505Z,2.70
2022-09-14T20:18:53.196Z,2.50
2022-09-14T20:21:22.829Z,1.90
2022-09-14T20:24:16.624Z,2.92
2022-09-14T20:26:48.533Z,2.08
2022-09-14T20:29:16.298Z,2.42
2022-09-14T20:31:43.052Z,3.42
2022-09-14T20:34:09.838Z,1.92
2022-09-14T20:36:36.404Z,2.47
2022-09-14T20:39:03.666Z,1.90
2022-09-14T20:41:33.284Z,1.80
2022-09-14T20:44:00.274Z,2.85
2022-09-14T20:46:31.055Z,1.92
2022-09-14T20:48:57.954Z,2.53
2022-09-14T20:51:25.399Z,2.55
2022-09-14T20:53:52.203Z,2.03
2022-09-14T20:56:22.117Z,3.78
2022-09-14T20:58:49.398Z,4.82
2022-09-14T21:01:20.178Z,1.92
2022-09-14T21:03:48.114Z,4.35
2022-09-14T21:06:17.839Z,2.33
2022-09-14T21:08:44.919Z,1.80
2022-09-14T21:11:17.095Z,4.05
2022-09-14T21:13:44.261Z,3.20
2022-09-14T21:16:19.763Z,3.03
2022-09-14T21:18:48.256Z,3.30
2022-09-14T21:21:18.336Z,3.00
2022-09-14T21:23:45.092Z,3.55
2022-09-14T21:26:12.541Z,1.73
2022-09-14T21:28:41.012Z,3.00
2022-09-14T21:31:15.954Z,2.13
2022-09-14T21:33:44.715Z,3.25
2022-09-14T21:36:14.281Z,1.45
2022-09-14T21:38:41.256Z,2.67
2022-09-14T21:41:10.248Z,2.17
2022-09-14T21:43:38.208Z,1.50
2022-09-14T21:46:05.151Z,1.88
2022-09-14T21:48:32.317Z,2.45
2022-09-14T21:51:17.105Z,2.35
2022-09-14T21:53:55.152Z,2.55
2022-09-14T21:56:23.461Z,3.95
2022-09-14T21:58:51.556Z,1.73
2022-09-14T22:01:18.560Z,2.13
2022-09-14T22:03:45.220Z,2.20
2022-09-14T22:06:13.222Z,2.58
2022-09-14T22:08:40.247Z,2.28
2022-09-14T22:11:08.109Z,3.58
2022-09-14T22:13:35.045Z,2.38
2022-09-14T22:16:09.891Z,2.55
2022-09-14T22:18:37.952Z,2.15
2022-09-14T22:21:04.979Z,3.03
2022-09-14T22:23:32.297Z,2.10
2022-09-14T22:25:59.032Z,5.13
2022-09-14T22:28:25.675Z,1.27
2022-09-14T22:30:54.532Z,2.03
2022-09-14T22:33:22.650Z,1.95
2022-09-14T22:35:57.209Z,1.70
2022-09-14T22:38:26.915Z,1.23
2022-09-14T22:40:58.526Z,1.25
2022-09-14T22:43:25.995Z,1.33
2022-09-14T22:45:52.767Z,1.75
2022-09-14T22:48:19.678Z,2.53
2022-09-14T22:50:48.101Z,2.22
2022-09-14T22:53:15.157Z,2.47
2022-09-14T22:55:42.663Z,4.30
2022-09-14T22:58:09.913Z,2.13
2022-09-14T23:00:38.813Z,1.50
2022-09-14T23:03:06.642Z,1.35
2022-09-14T23:05:33.800Z,2.28
2022-09-14T23:08:00.392Z,1.88
2022-09-14T23:10:27.265Z,5.22
2022-09-14T23:12:53.956Z,1.98
2022-09-14T23:15:20.545Z,3.38
2022-09-14T23:17:51.865Z,5.03
2022-09-14T23:20:18.690Z,2.13
2022-09-14T23:22:45.227Z,4.07
2022-09-14T23:25:11.783Z,2.95
2022-09-14T23:27:38.319Z,2.65
2022-09-14T23:30:05.192Z,3.55
2022-09-14T23:32:32.271Z,2.45
2022-09-14T23:34:58.815Z,1.98
2022-09-14T23:37:25.357Z,3.17
2022-09-14T23:39:52.044Z,2.53
2022-09-14T23:42:18.652Z,2.92
2022-09-14T23:44:45.217Z,2.90
2022-09-14T23:47:11.769Z,2.65
2022-09-14T23:49:38.292Z,2.13
2022-09-14T23:52:04.887Z,2.15
2022-09-14T23:54:32.206Z,2.38
2022-09-14T23:56:58.733Z,3.83
2022-09-14T23:59:25.340Z,3.35
